createdAt,value
2022-11-28T00:02:32.940Z,76.62
2022-11-28T00:05:08.084Z,76.65
2022-11-28T00:07:41.706Z,76.65
2022-11-28T00:10:16.018Z,76.54
2022-11-28T00:12:49.568Z,76.73
2022-11-28T00:15:23.159Z,76.73
2022-11-28T00:17:56.461Z,76.69
2022-11-28T00:20:29.900Z,76.73
2022-11-28T00:23:03.212Z,76.57
2022-11-28T00:25:36.530Z,76.28
2022-11-28T00:28:10.220Z,76.12
2022-11-28T00:30:43.690Z,76.03
2022-11-28T00:33:17.222Z,76.08
2022-11-28T00:35:51.103Z,76.05
2022-11-28T00:38:25.056Z,76.00
2022-11-28T00:41:04.403Z,76.03
2022-11-28T00:43:38.217Z,76.15
2022-11-28T00:46:12.307Z,76.18
2022-11-28T00:48:46.198Z,76.12
2022-11-28T00:51:20.828Z,76.08
2022-11-28T00:53:55.771Z,76.11
2022-11-28T00:56:32.562Z,76.11
2022-11-28T00:59:06.282Z,76.15
2022-11-28T01:01:42.443Z,76.16
2022-11-28T01:04:17.774Z,76.21
2022-11-28T01:06:52.307Z,76.12
2022-11-28T01:09:27.045Z,76.03
2022-11-28T01:12:00.847Z,75.98
2022-11-28T01:14:35.042Z,75.90
2022-11-28T01:17:09.565Z,76.09
2022-11-28T01:19:42.894Z,76.16
2022-11-28T01:22:16.574Z,75.97
2022-11-28T01:24:50.281Z,75.73
2022-11-28T01:27:23.965Z,75.66
2022-11-28T01:29:57.635Z,75.60
2022-11-28T01:32:31.412Z,75.64
2022-11-28T01:35:05.133Z,75.45
2022-11-28T01:37:38.725Z,75.41
2022-11-28T01:40:14.766Z,75.34
2022-11-28T01:42:48.360Z,75.49
2022-11-28T01:45:25.264Z,75.49
2022-11-28T01:48:04.373Z,75.47
2022-11-28T01:50:39.128Z,75.49
2022-11-28T01:53:14.334Z,75.51
2022-11-28T01:55:56.542Z,75.56
2022-11-28T01:58:31.131Z,75.68
2022-11-28T02:01:05.170Z,75.55
2022-11-28T02:03:43.774Z,75.57
2022-11-28T02:06:19.890Z,75.36
2022-11-28T02:08:56.335Z,75.10
2022-11-28T02:11:47.731Z,75.02
2022-11-28T02:14:34.535Z,75.00
2022-11-28T02:17:24.974Z,74.71
2022-11-28T02:20:25.888Z,74.75
2022-11-28T02:23:06.404Z,75.11
2022-11-28T02:26:07.576Z,75.19
2022-11-28T02:29:19.635Z,75.15
2022-11-28T02:32:19.258Z,75.17
2022-11-28T02:34:59.602Z,75.27
2022-11-28T02:37:40.277Z,75.25
2022-11-28T02:40:23.930Z,75.25
2022-11-28T02:43:12.775Z,75.35
2022-11-28T02:45:52.447Z,75.54
2022-11-28T02:48:33.176Z,75.44
2022-11-28T02:51:13.183Z,75.36
2022-11-28T02:53:51.157Z,75.23
2022-11-28T02:56:26.951Z,75.03
2022-11-28T02:59:00.610Z,74.85
2022-11-28T03:01:39.594Z,74.92
2022-11-28T03:04:27.157Z,74.97
2022-11-28T03:07:12.089Z,75.16
2022-11-28T03:10:03.930Z,75.03
2022-11-28T03:12:47.948Z,74.91
2022-11-28T03:15:25.639Z,74.91
2022-11-28T03:18:09.526Z,74.92
2022-11-28T03:20:48.988Z,74.85
2022-11-28T03:23:28.686Z,74.66
2022-11-28T03:26:09.290Z,74.57
2022-11-28T03:28:47.127Z,74.68
2022-11-28T03:31:23.919Z,74.66
2022-11-28T03:34:00.972Z,74.65
2022-11-28T03:36:38.263Z,74.98
2022-11-28T03:39:15.679Z,74.89
2022-11-28T03:41:54.111Z,75.05
2022-11-28T03:44:28.682Z,75.11
2022-11-28T03:47:06.955Z,75.19
2022-11-28T03:49:43.685Z,75.29
2022-11-28T03:52:23.558Z,75.36
2022-11-28T03:55:02.446Z,75.23
2022-11-28T03:57:39.519Z,75.22
2022-11-28T04:00:15.529Z,75.17
2022-11-28T04:02:57.341Z,75.07
2022-11-28T04:05:39.020Z,75.10
2022-11-28T04:08:18.648Z,75.09
2022-11-28T04:10:58.373Z,75.21
2022-11-28T04:13:35.687Z,75.08
2022-11-28T04:16:14.889Z,75.07
2022-11-28T04:18:56.881Z,74.99
2022-11-28T04:21:36.060Z,75.06
2022-11-28T04:24:14.349Z,75.01
2022-11-28T04:26:53.648Z,75.09
2022-11-28T04:29:29.980Z,75.23
2022-11-28T04:32:05.795Z,75.07
2022-11-28T04:34:43.651Z,75.01
2022-11-28T04:37:19.405Z,74.89
2022-11-28T04:39:54.340Z,74.76
2022-11-28T04:42:34.448Z,74.70
2022-11-28T04:45:15.212Z,74.51
2022-11-28T04:47:49.410Z,74.47
2022-11-28T04:50:25.245Z,74.42
2022-11-28T04:53:02.329Z,74.51
2022-11-28T04:55:40.847Z,74.65
2022-11-28T04:58:17.940Z,74.85
2022-11-28T05:00:54.694Z,75.04
2022-11-28T05:03:31.192Z,74.93
2022-11-28T05:06:05.981Z,74.97
2022-11-28T05:08:39.705Z,74.92
2022-11-28T05:11:13.106Z,74.88
2022-11-28T05:13:46.627Z,74.91
2022-11-28T05:16:20.747Z,75.03
2022-11-28T05:18:54.830Z,75.19
2022-11-28T05:21:28.295Z,75.26
2022-11-28T05:24:02.113Z,75.47
2022-11-28T05:26:35.900Z,75.48
2022-11-28T05:29:09.579Z,75.51
2022-11-28T05:31:43.220Z,75.68
2022-11-28T05:34:16.990Z,75.59
2022-11-28T05:36:50.497Z,75.46
2022-11-28T05:39:23.676Z,75.47
2022-11-28T05:41:58.191Z,75.31
2022-11-28T05:44:32.016Z,75.36
2022-11-28T05:47:05.296Z,75.25
2022-11-28T05:49:38.855Z,75.25
2022-11-28T05:52:12.383Z,75.18
2022-11-28T05:54:46.149Z,75.03
2022-11-28T05:57:19.509Z,74.96
2022-11-28T05:59:53.385Z,74.79
2022-11-28T06:02:27.127Z,74.66
2022-11-28T06:05:16.208Z,74.51
2022-11-28T06:07:55.072Z,74.58
2022-11-28T06:10:28.513Z,74.83
2022-11-28T06:13:03.280Z,75.20
2022-11-28T06:15:38.499Z,75.18
2022-11-28T06:18:12.795Z,75.33
2022-11-28T06:20:46.282Z,75.43
2022-11-28T06:23:19.692Z,75.52
2022-11-28T06:25:53.392Z,75.60
2022-11-28T06:28:26.936Z,75.62
2022-11-28T06:31:00.968Z,75.82
2022-11-28T06:33:34.602Z,75.81
2022-11-28T06:36:09.968Z,75.75
2022-11-28T06:38:43.907Z,75.95
2022-11-28T06:41:19.500Z,76.01
2022-11-28T06:43:52.881Z,75.79
2022-11-28T06:46:26.588Z,75.97
2022-11-28T06:49:00.201Z,76.16
2022-11-28T06:51:34.139Z,76.22
2022-11-28T06:54:08.446Z,75.87
2022-11-28T06:56:43.049Z,75.44
2022-11-28T06:59:16.766Z,75.09
2022-11-28T07:01:50.247Z,74.99
2022-11-28T07:04:24.124Z,75.13
2022-11-28T07:06:57.476Z,75.39
2022-11-28T07:09:31.332Z,75.32
2022-11-28T07:12:04.881Z,75.47
2022-11-28T07:14:38.574Z,75.61
2022-11-28T07:17:11.597Z,75.58
2022-11-28T07:19:48.161Z,75.47
2022-11-28T07:22:24.403Z,75.79
2022-11-28T07:24:58.083Z,75.76
2022-11-28T07:27:32.179Z,75.58
2022-11-28T07:30:06.139Z,75.92
2022-11-28T07:32:42.599Z,76.17
2022-11-28T07:35:16.117Z,76.27
2022-11-28T07:37:50.132Z,76.32
2022-11-28T07:40:23.517Z,76.37
2022-11-28T07:42:57.096Z,76.41
2022-11-28T07:45:47.505Z,76.30
2022-11-28T07:48:25.367Z,76.09
2022-11-28T07:50:58.784Z,76.07
2022-11-28T07:53:32.455Z,75.97
2022-11-28T07:56:08.148Z,75.84
2022-11-28T07:58:41.748Z,75.64
2022-11-28T08:01:17.047Z,75.29
2022-11-28T08:03:51.176Z,75.11
2022-11-28T08:06:27.875Z,74.87
2022-11-28T08:09:03.849Z,74.72
2022-11-28T08:11:38.015Z,74.76
2022-11-28T08:14:11.407Z,74.99
2022-11-28T08:16:46.514Z,75.15
2022-11-28T08:19:24.581Z,74.72
2022-11-28T08:21:58.648Z,74.55
2022-11-28T08:24:32.435Z,74.45
2022-11-28T08:27:06.050Z,74.62
2022-11-28T08:29:39.969Z,74.87
2022-11-28T08:32:13.450Z,74.83
2022-11-28T08:34:47.269Z,74.20
2022-11-28T08:37:20.858Z,74.22
2022-11-28T08:39:54.507Z,74.36
2022-11-28T08:42:29.406Z,74.50
2022-11-28T08:45:03.263Z,74.09
2022-11-28T08:47:37.374Z,74.10
2022-11-28T08:50:11.972Z,74.24
2022-11-28T08:52:46.485Z,74.35
2022-11-28T08:55:25.116Z,73.99
2022-11-28T08:58:05.434Z,73.93
2022-11-28T09:00:39.176Z,74.12
2022-11-28T09:03:16.628Z,74.29
2022-11-28T09:05:50.765Z,73.67
2022-11-28T09:08:24.782Z,73.74
2022-11-28T09:10:58.779Z,74.07
2022-11-28T09:13:32.352Z,74.03
2022-11-28T09:16:07.468Z,73.79
2022-11-28T09:18:41.004Z,74.37
2022-11-28T09:21:16.749Z,74.27
2022-11-28T09:23:50.399Z,74.16
2022-11-28T09:26:26.189Z,73.98
2022-11-28T09:28:59.495Z,73.28
2022-11-28T09:31:33.079Z,73.02
2022-11-28T09:34:06.577Z,73.38
2022-11-28T09:36:40.046Z,73.97
2022-11-28T09:39:13.980Z,73.10
2022-11-28T09:41:57.336Z,73.28
2022-11-28T09:44:39.819Z,73.09
2022-11-28T09:47:20.549Z,72.73
2022-11-28T09:49:58.528Z,72.99
2022-11-28T09:52:40.498Z,72.90
2022-11-28T09:55:23.303Z,72.28
2022-11-28T09:57:58.054Z,72.15
2022-11-28T10:00:38.089Z,72.17
2022-11-28T10:03:35.348Z,72.25
2022-11-28T10:06:19.746Z,72.34
2022-11-28T10:09:18.250Z,72.34
2022-11-28T10:11:58.097Z,72.33
2022-11-28T10:14:57.264Z,71.82
2022-11-28T10:17:44.800Z,71.61
2022-11-28T10:20:23.909Z,71.61
2022-11-28T10:23:02.252Z,71.30
2022-11-28T10:25:40.581Z,71.70
2022-11-28T10:28:21.616Z,71.26
2022-11-28T10:31:02.467Z,71.64
2022-11-28T10:33:43.567Z,72.29
2022-11-28T10:36:23.363Z,71.95
2022-11-28T10:38:56.856Z,71.59
2022-11-28T10:41:36.460Z,71.57
2022-11-28T10:44:21.821Z,71.99
2022-11-28T10:47:05.989Z,72.38
2022-11-28T10:49:51.092Z,72.35
2022-11-28T10:52:29.279Z,72.38
2022-11-28T10:55:23.309Z,72.87
2022-11-28T10:58:04.842Z,73.00
2022-11-28T11:00:39.887Z,72.81
2022-11-28T11:03:18.936Z,72.52
2022-11-28T11:05:52.651Z,72.27
2022-11-28T11:08:27.872Z,72.55
2022-11-28T11:11:07.168Z,72.94
2022-11-28T11:14:00.379Z,73.33
2022-11-28T11:16:50.716Z,72.71
2022-11-28T11:19:30.376Z,72.57
2022-11-28T11:22:08.124Z,72.57
2022-11-28T11:24:41.485Z,72.89
2022-11-28T11:27:23.005Z,72.95
2022-11-28T11:29:57.660Z,72.71
2022-11-28T11:32:32.433Z,72.50
2022-11-28T11:35:07.272Z,72.38
2022-11-28T11:37:41.729Z,72.21
2022-11-28T11:40:27.064Z,72.53
2022-11-28T11:43:02.439Z,72.85
2022-11-28T11:45:44.352Z,72.81
2022-11-28T11:48:36.337Z,72.21
2022-11-28T11:51:22.618Z,71.77
2022-11-28T11:54:07.225Z,72.03
2022-11-28T11:56:43.924Z,72.50
2022-11-28T11:59:22.250Z,72.88
2022-11-28T12:02:02.482Z,73.29
2022-11-28T12:04:47.199Z,73.27
2022-11-28T12:07:30.614Z,73.08
2022-11-28T12:10:06.136Z,72.42
2022-11-28T12:12:42.435Z,72.26
2022-11-28T12:15:30.138Z,72.22
2022-11-28T12:18:22.260Z,72.79
2022-11-28T12:21:09.957Z,72.95
2022-11-28T12:24:08.782Z,73.04
2022-11-28T12:26:49.935Z,72.72
2022-11-28T12:29:40.184Z,72.59
2022-11-28T12:32:24.265Z,72.31
2022-11-28T12:35:09.361Z,72.06
2022-11-28T12:41:00.314Z,72.26
2022-11-28T12:43:47.706Z,72.57
2022-11-28T12:46:30.314Z,72.32
2022-11-28T12:49:17.829Z,72.13
2022-11-28T12:52:14.926Z,72.66
2022-11-28T12:55:04.786Z,72.87
2022-11-28T12:57:45.335Z,73.09
2022-11-28T13:00:22.902Z,73.16
2022-11-28T13:03:21.393Z,72.90
2022-11-28T13:06:07.744Z,72.60
2022-11-28T13:09:03.082Z,72.41
2022-11-28T13:11:55.856Z,72.65
2022-11-28T13:14:40.198Z,72.52
2022-11-28T13:17:27.546Z,72.50
2022-11-28T13:20:09.673Z,72.79
2022-11-28T13:22:57.275Z,72.90
2022-11-28T13:25:39.359Z,72.94
2022-11-28T13:28:20.708Z,73.17
2022-11-28T13:30:58.681Z,72.95
2022-11-28T13:33:51.388Z,72.96
2022-11-28T13:39:39.750Z,72.73
2022-11-28T13:45:31.767Z,73.27
2022-11-28T13:51:38.801Z,73.18
2022-11-28T13:54:48.439Z,73.08
2022-11-28T13:57:32.806Z,72.72
2022-11-28T14:00:23.725Z,72.55
2022-11-28T14:03:00.382Z,72.73
2022-11-28T14:05:37.528Z,72.79
2022-11-28T14:08:27.681Z,72.82
2022-11-28T14:11:27.629Z,72.84
2022-11-28T14:14:16.025Z,73.13
2022-11-28T14:17:03.489Z,73.20
2022-11-28T14:19:55.698Z,73.11
2022-11-28T14:22:42.985Z,73.11
2022-11-28T14:25:22.190Z,73.23
2022-11-28T14:27:58.939Z,73.54
2022-11-28T14:30:38.840Z,73.36
2022-11-28T14:33:22.017Z,73.49
2022-11-28T14:36:25.380Z,73.43
2022-11-28T14:39:37.526Z,73.54
2022-11-28T14:42:59.726Z,73.28
2022-11-28T14:45:46.462Z,73.41
2022-11-28T14:48:32.438Z,73.42
2022-11-28T14:51:07.475Z,73.29
2022-11-28T14:53:47.109Z,73.12
2022-11-28T14:56:30.135Z,73.10
2022-11-28T14:59:05.160Z,73.09
2022-11-28T15:01:54.396Z,73.05
2022-11-28T15:04:51.668Z,73.12
2022-11-28T15:07:36.687Z,73.26
2022-11-28T15:10:20.301Z,73.20
2022-11-28T15:13:07.550Z,73.06
2022-11-28T15:15:51.312Z,73.09
2022-11-28T15:18:26.758Z,73.29
2022-11-28T15:21:06.238Z,73.17
2022-11-28T15:23:40.757Z,73.40
2022-11-28T15:26:23.462Z,73.41
2022-11-28T15:29:20.792Z,73.17
2022-11-28T15:31:57.462Z,73.06
2022-11-28T15:34:33.768Z,73.09
2022-11-28T15:37:18.120Z,73.09
2022-11-28T15:39:52.938Z,73.41
2022-11-28T15:42:31.140Z,73.50
2022-11-28T15:45:10.618Z,73.50
2022-11-28T15:47:47.030Z,73.50
2022-11-28T15:50:25.508Z,73.44
2022-11-28T15:53:00.952Z,73.32
2022-11-28T15:55:38.294Z,73.39
2022-11-28T15:58:20.394Z,73.37
2022-11-28T16:01:00.677Z,73.19
2022-11-28T16:03:37.332Z,73.18
2022-11-28T16:06:11.652Z,73.02
2022-11-28T16:08:52.594Z,73.15
2022-11-28T16:11:29.465Z,73.32
2022-11-28T16:14:09.170Z,73.27
2022-11-28T16:16:44.116Z,73.33
2022-11-28T16:19:27.476Z,73.52
2022-11-28T16:22:03.865Z,73.44
2022-11-28T16:24:48.275Z,73.20
2022-11-28T16:27:35.858Z,73.31
2022-11-28T16:30:30.566Z,73.45
2022-11-28T16:33:05.305Z,73.40
2022-11-28T16:35:41.957Z,73.39
2022-11-28T16:38:20.852Z,73.53
2022-11-28T16:40:54.292Z,73.41
2022-11-28T16:43:40.485Z,73.32
2022-11-28T16:46:24.043Z,73.39
2022-11-28T16:49:00.430Z,73.41
2022-11-28T16:51:42.059Z,73.15
2022-11-28T16:54:35.403Z,73.08
2022-11-28T16:57:16.277Z,73.28
2022-11-28T16:59:53.903Z,73.32
2022-11-28T17:02:28.819Z,73.00
2022-11-28T17:05:03.794Z,73.14
2022-11-28T17:07:38.823Z,72.96
2022-11-28T17:10:15.071Z,72.75
2022-11-28T17:12:50.828Z,72.93
2022-11-28T17:15:25.905Z,73.02
2022-11-28T17:18:01.027Z,73.01
2022-11-28T17:20:36.125Z,72.89
2022-11-28T17:23:11.954Z,72.79
2022-11-28T17:25:46.160Z,72.70
2022-11-28T17:28:23.198Z,72.79
2022-11-28T17:31:00.760Z,72.88
2022-11-28T17:33:43.121Z,72.98
2022-11-28T17:36:20.463Z,73.09
2022-11-28T17:39:04.840Z,73.10
2022-11-28T17:41:41.794Z,73.10
2022-11-28T17:44:20.931Z,73.06
2022-11-28T17:46:57.396Z,73.20
2022-11-28T17:49:33.366Z,73.30
2022-11-28T17:52:09.259Z,73.38
2022-11-28T17:54:43.759Z,73.09
2022-11-28T17:57:21.465Z,73.21
2022-11-28T17:59:57.393Z,73.31
2022-11-28T18:02:31.820Z,73.48
2022-11-28T18:05:07.593Z,73.39
2022-11-28T18:07:42.025Z,73.25
2022-11-28T18:10:18.744Z,73.19
2022-11-28T18:12:54.235Z,73.12
2022-11-28T18:15:29.441Z,73.16
2022-11-28T18:18:05.825Z,72.95
2022-11-28T18:20:42.357Z,72.91
2022-11-28T18:23:18.042Z,72.94
2022-11-28T18:25:53.272Z,73.02
2022-11-28T18:28:31.722Z,73.14
2022-11-28T18:31:14.193Z,72.97
2022-11-28T18:33:49.946Z,72.82
2022-11-28T18:36:26.677Z,72.88
2022-11-28T18:39:05.791Z,72.89
2022-11-28T18:41:40.606Z,73.10
2022-11-28T18:44:15.647Z,73.21
2022-11-28T18:46:50.355Z,73.00
2022-11-28T18:49:25.792Z,72.66
2022-11-28T18:52:01.385Z,72.57
2022-11-28T18:54:39.491Z,72.67
2022-11-28T18:57:14.049Z,72.43
2022-11-28T18:59:55.272Z,72.34
2022-11-28T19:02:30.460Z,72.41
2022-11-28T19:05:05.370Z,72.25
2022-11-28T19:07:42.834Z,72.55
2022-11-28T19:10:18.801Z,72.30
2022-11-28T19:12:54.107Z,72.40
2022-11-28T19:15:27.987Z,72.39
2022-11-28T19:18:02.267Z,72.40
2022-11-28T19:20:36.551Z,72.60
2022-11-28T19:23:11.908Z,72.74
2022-11-28T19:25:50.197Z,72.80
2022-11-28T19:28:27.209Z,72.52
2022-11-28T19:31:10.069Z,72.40
2022-11-28T19:33:50.375Z,72.52
2022-11-28T19:36:25.352Z,72.76
2022-11-28T19:39:01.758Z,72.93
2022-11-28T19:41:37.923Z,72.86
2022-11-28T19:44:17.261Z,72.56
2022-11-28T19:46:54.358Z,72.53
2022-11-28T19:49:32.401Z,72.49
2022-11-28T19:52:08.387Z,72.78
2022-11-28T19:54:47.084Z,72.88
2022-11-28T19:57:22.391Z,73.09
2022-11-28T19:59:59.091Z,73.01
2022-11-28T20:02:34.873Z,73.19
2022-11-28T20:05:11.848Z,73.02
2022-11-28T20:07:48.431Z,72.96
2022-11-28T20:10:24.270Z,72.73
2022-11-28T20:12:59.773Z,72.70
2022-11-28T20:15:36.709Z,72.87
2022-11-28T20:18:12.039Z,72.87
2022-11-28T20:20:46.947Z,72.88
2022-11-28T20:23:21.590Z,72.67
2022-11-28T20:25:56.716Z,72.55
2022-11-28T20:28:32.638Z,72.38
2022-11-28T20:31:09.161Z,72.50
2022-11-28T20:33:45.368Z,72.58
2022-11-28T20:36:21.189Z,72.24
2022-11-28T20:38:57.521Z,72.22
2022-11-28T20:41:32.589Z,72.38
2022-11-28T20:44:08.330Z,72.56
2022-11-28T20:46:45.081Z,72.52
2022-11-28T20:49:20.033Z,72.59
2022-11-28T20:51:55.111Z,72.34
2022-11-28T20:54:31.597Z,72.20
2022-11-28T20:57:21.232Z,72.16
2022-11-28T20:59:58.901Z,72.16
2022-11-28T21:02:33.974Z,72.00
2022-11-28T21:05:09.809Z,71.79
2022-11-28T21:07:44.494Z,71.93
2022-11-28T21:10:19.203Z,71.88
2022-11-28T21:12:53.314Z,71.84
2022-11-28T21:15:27.197Z,71.95
2022-11-28T21:18:00.582Z,71.91
2022-11-28T21:20:35.471Z,71.95
2022-11-28T21:23:09.786Z,72.05
2022-11-28T21:25:44.857Z,72.05
2022-11-28T21:28:19.347Z,71.98
2022-11-28T21:30:53.197Z,71.87
2022-11-28T21:33:27.100Z,72.05
2022-11-28T21:36:03.417Z,72.24
2022-11-28T21:38:37.775Z,72.08
2022-11-28T21:41:12.065Z,71.85
2022-11-28T21:43:45.567Z,71.93
2022-11-28T21:46:19.527Z,72.18
2022-11-28T21:48:54.017Z,72.01
2022-11-28T21:51:29.072Z,72.13
2022-11-28T21:54:03.075Z,72.20
2022-11-28T21:56:37.680Z,72.04
2022-11-28T21:59:11.313Z,72.05
2022-11-28T22:01:46.881Z,71.98
2022-11-28T22:04:22.377Z,71.67
2022-11-28T22:06:55.797Z,71.65
2022-11-28T22:09:29.465Z,71.60
2022-11-28T22:12:05.628Z,71.51
2022-11-28T22:14:39.919Z,71.49
2022-11-28T22:17:13.797Z,71.47
2022-11-28T22:19:47.440Z,71.52
2022-11-28T22:22:21.399Z,71.37
2022-11-28T22:24:55.140Z,71.45
2022-11-28T22:27:32.440Z,71.69
2022-11-28T22:30:06.188Z,71.62
2022-11-28T22:32:39.749Z,71.72
2022-11-28T22:35:13.974Z,71.44
2022-11-28T22:37:47.953Z,71.40
2022-11-28T22:40:21.883Z,71.32
2022-11-28T22:42:59.317Z,71.51
2022-11-28T22:45:33.656Z,71.67
2022-11-28T22:48:08.279Z,71.34
2022-11-28T22:50:43.762Z,71.54
2022-11-28T22:53:17.442Z,71.96
2022-11-28T22:55:51.268Z,71.98
2022-11-28T22:58:24.501Z,71.97
2022-11-28T23:00:58.351Z,71.48
2022-11-28T23:03:32.023Z,71.32
2022-11-28T23:06:09.893Z,71.40
2022-11-28T23:08:43.965Z,71.46
2022-11-28T23:11:19.592Z,71.64
2022-11-28T23:13:54.309Z,71.60
2022-11-28T23:16:30.402Z,71.63
2022-11-28T23:19:06.366Z,71.50
2022-11-28T23:21:42.770Z,71.35
2022-11-28T23:24:19.037Z,71.47
2022-11-28T23:26:53.917Z,71.32
2022-11-28T23:29:27.586Z,71.42
2022-11-28T23:32:01.941Z,71.34
2022-11-28T23:34:36.577Z,71.38
2022-11-28T23:37:10.507Z,71.17
2022-11-28T23:39:44.382Z,71.23
2022-11-28T23:42:20.073Z,71.18
2022-11-28T23:44:54.020Z,70.89
2022-11-28T23:47:27.442Z,70.92
2022-11-28T23:50:01.076Z,70.99
2022-11-28T23:52:35.319Z,71.16
2022-11-28T23:55:10.345Z,71.35
2022-11-28T23:57:43.956Z,71.22
